Terminal Aerodrome Forecast
Issued by NWS

Home | Current Version | Previous Version | Text Only | Print | Product List | Glossary On
Versions: 1 2 3 4 5 6 7 8 9 10 11 12 13 14 15 16 17 18 19 20 21 22
000
FTUS41 KPBZ 020200 AAA
TAFFKL
TAF AMD
KFKL 020218Z 0202/0224 18005KT P6SM SKC
     FM021400 20012KT P6SM BKN100
     FM021600 20015G25KT P6SM -SHRA OVC035
     FM022000 21015G25KT 4SM -SHRA OVC025
      AMD LTD TO CLD VIS AND WIND=

USA.gov is the U.S. government's official web portal to all federal, state and local government web resources and services.